Englewood, TN (37329)

10:36 PM EDT on July 26, 2016 (GMT -0400)
Etowah Utilities | | Change Station

Elev 791 ft 35.32 °N, 84.53 °W | Updated 29 seconds ago

Mostly Cloudy
Mostly Cloudy
78.8 °F
Feels Like 83 °F
N
0.4
Wind Variable Wind from NNE
Gusts 2.5 mph

Today
High -- | Low -- °F
--% Chance of Precip.
Yesterday
High -- | Low -- °F
Precip. -- in
Pressure 30.05 in
Visibility 10.0 miles
Clouds Scattered Clouds 6500 ft
Scattered Clouds 8500 ft
Mostly Cloudy 11000 ft
Heat Index 83 °F
Dew Point 76 °F
Humidity 91%
Rainfall 0.13 in
Snow Depth Not available.
6:42 AM 8:46 PM
Waning Gibbous, 48% visible
METAR KMMI 270215Z AUTO 00000KT 10SM SCT065 SCT085 BKN110 24/23 A3005 RMK
Pressure 30.05 in
Visibility 10.0 miles
Clouds Scattered Clouds 6500 ft
Scattered Clouds 8500 ft
Mostly Cloudy 11000 ft
Heat Index 83 °F
Dew Point 76 °F
Humidity 91%
Rainfall 0.13 in
Snow Depth Not available.
6:42 AM 8:46 PM
Waning Gibbous, 48% visible
METAR KMMI 270215Z AUTO 00000KT 10SM SCT065 SCT085 BKN110 24/23 A3005 RMK

10-Day Weather Forecast

Almanac

Astronomy

Jul. 26, 2016 Rise Set
Actual Time
Civil Twilight
Nautical Twilight
Astronomical Twilight
Moon
Length of Visible Light
Length of Day
Tomorrow will be .
, % of the Moon is Illuminated

Today's Extremes

State Highs State Lows

Community

WunderPhotos

Upload Photos

1,927,779 photos uploaded!

WunderBlog® & News

Nearby

Air Quality

  Air Quality AQ Index Pollutant
Not available.

Snow Depth

Station Depth Elevation

Earthquake Activity

City Distance Mag. Time & Date
Minimum magnitude displayed is 2.5.

Coastal Water Temperatures

Place Temperature

Stations

Nearby Weather Stations

Station Location Temp. Windchill Dew Point Humidity Wind Precip. Elev Updated Type
                   

Watches & Warnings

There are currently no watches in effect.